sensor_id;sensor_type;location;lat;lon;timestamp;P1;durP1;ratioP1;P2;durP2;ratioP2
35434;SDS011;21556;55.782;37.528;2022-10-16T00:01:10;14.52;;;6.30;;
35434;SDS011;21556;55.782;37.528;2022-10-16T00:03:39;13.25;;;5.93;;
35434;SDS011;21556;55.782;37.528;2022-10-16T00:06:08;8.80;;;5.60;;
35434;SDS011;21556;55.782;37.528;2022-10-16T00:08:34;8.77;;;6.18;;
35434;SDS011;21556;55.782;37.528;2022-10-16T00:11:10;10.75;;;5.88;;
35434;SDS011;21556;55.782;37.528;2022-10-16T00:13:39;9.40;;;5.93;;
35434;SDS011;21556;55.782;37.528;2022-10-16T00:16:06;10.27;;;4.90;;
35434;SDS011;21556;55.782;37.528;2022-10-16T00:18:32;9.48;;;5.30;;
35434;SDS011;21556;55.782;37.528;2022-10-16T00:21:18;7.78;;;5.30;;
35434;SDS011;21556;55.782;37.528;2022-10-16T00:24:06;8.65;;;5.38;;
35434;SDS011;21556;55.782;37.528;2022-10-16T00:26:34;8.88;;;6.10;;
35434;SDS011;21556;55.782;37.528;2022-10-16T00:29:01;8.82;;;5.55;;
35434;SDS011;21556;55.782;37.528;2022-10-16T00:31:29;8.88;;;5.28;;
35434;SDS011;21556;55.782;37.528;2022-10-16T00:33:55;9.65;;;5.60;;
35434;SDS011;21556;55.782;37.528;2022-10-16T00:36:21;11.10;;;6.03;;
35434;SDS011;21556;55.782;37.528;2022-10-16T00:38:53;11.50;;;6.05;;
35434;SDS011;21556;55.782;37.528;2022-10-16T00:41:21;8.98;;;5.63;;
35434;SDS011;21556;55.782;37.528;2022-10-16T00:43:51;11.70;;;5.90;;
35434;SDS011;21556;55.782;37.528;2022-10-16T00:46:38;8.10;;;5.70;;
35434;SDS011;21556;55.782;37.528;2022-10-16T00:49:08;11.20;;;6.20;;
35434;SDS011;21556;55.782;37.528;2022-10-16T00:51:40;10.88;;;6.35;;
35434;SDS011;21556;55.782;37.528;2022-10-16T00:54:10;10.95;;;7.50;;
35434;SDS011;21556;55.782;37.528;2022-10-16T00:56:40;9.32;;;6.30;;
35434;SDS011;21556;55.782;37.528;2022-10-16T00:59:11;9.65;;;6.80;;
35434;SDS011;21556;55.782;37.528;2022-10-16T01:01:41;13.32;;;7.28;;
35434;SDS011;21556;55.782;37.528;2022-10-16T01:04:07;10.45;;;6.13;;
35434;SDS011;21556;55.782;37.528;2022-10-16T01:09:11;12.57;;;6.22;;
35434;SDS011;21556;55.782;37.528;2022-10-16T01:11:49;10.65;;;6.63;;
35434;SDS011;21556;55.782;37.528;2022-10-16T01:14:31;13.55;;;6.22;;
35434;SDS011;21556;55.782;37.528;2022-10-16T01:22:14;14.05;;;6.35;;
35434;SDS011;21556;55.782;37.528;2022-10-16T01:24:43;8.02;;;5.65;;
35434;SDS011;21556;55.782;37.528;2022-10-16T01:40:22;10.98;;;5.28;;
35434;SDS011;21556;55.782;37.528;2022-10-16T01:43:08;7.85;;;4.57;;
35434;SDS011;21556;55.782;37.528;2022-10-16T01:45:56;10.88;;;4.60;;
35434;SDS011;21556;55.782;37.528;2022-10-16T01:51:11;10.95;;;5.15;;
35434;SDS011;21556;55.782;37.528;2022-10-16T01:56:07;16.23;;;7.45;;
35434;SDS011;21556;55.782;37.528;2022-10-16T01:58:39;8.43;;;4.18;;
35434;SDS011;21556;55.782;37.528;2022-10-16T02:01:08;10.80;;;5.13;;
35434;SDS011;21556;55.782;37.528;2022-10-16T02:03:42;10.38;;;5.18;;
35434;SDS011;21556;55.782;37.528;2022-10-16T02:06:09;7.90;;;4.60;;
35434;SDS011;21556;55.782;37.528;2022-10-16T02:08:37;9.77;;;4.95;;
35434;SDS011;21556;55.782;37.528;2022-10-16T02:11:05;8.50;;;5.10;;
35434;SDS011;21556;55.782;37.528;2022-10-16T02:13:53;10.02;;;4.32;;
35434;SDS011;21556;55.782;37.528;2022-10-16T02:19:00;13.85;;;5.43;;
35434;SDS011;21556;55.782;37.528;2022-10-16T02:21:28;16.48;;;6.05;;
35434;SDS011;21556;55.782;37.528;2022-10-16T02:24:43;11.35;;;5.82;;
35434;SDS011;21556;55.782;37.528;2022-10-16T02:32:39;13.27;;;6.60;;
35434;SDS011;21556;55.782;37.528;2022-10-16T02:35:08;18.17;;;7.43;;
35434;SDS011;21556;55.782;37.528;2022-10-16T02:37:34;17.70;;;7.38;;
35434;SDS011;21556;55.782;37.528;2022-10-16T02:40:02;12.45;;;8.80;;
35434;SDS011;21556;55.782;37.528;2022-10-16T02:42:34;14.75;;;7.47;;
35434;SDS011;21556;55.782;37.528;2022-10-16T02:45:05;13.52;;;7.03;;
35434;SDS011;21556;55.782;37.528;2022-10-16T02:47:33;13.05;;;6.75;;
35434;SDS011;21556;55.782;37.528;2022-10-16T02:50:02;12.82;;;6.55;;
35434;SDS011;21556;55.782;37.528;2022-10-16T02:52:30;9.50;;;5.87;;
35434;SDS011;21556;55.782;37.528;2022-10-16T02:54:56;13.25;;;6.10;;
35434;SDS011;21556;55.782;37.528;2022-10-16T02:57:22;13.48;;;6.65;;
35434;SDS011;21556;55.782;37.528;2022-10-16T02:59:48;10.43;;;5.90;;
35434;SDS011;21556;55.782;37.528;2022-10-16T03:02:14;9.77;;;5.60;;
35434;SDS011;21556;55.782;37.528;2022-10-16T03:04:40;8.65;;;5.22;;
35434;SDS011;21556;55.782;37.528;2022-10-16T03:07:06;12.32;;;5.70;;
35434;SDS011;21556;55.782;37.528;2022-10-16T03:09:32;9.13;;;5.85;;
35434;SDS011;21556;55.782;37.528;2022-10-16T03:11:59;13.85;;;6.05;;
35434;SDS011;21556;55.782;37.528;2022-10-16T03:14:25;11.65;;;6.10;;
35434;SDS011;21556;55.782;37.528;2022-10-16T03:19:19;7.47;;;5.03;;
35434;SDS011;21556;55.782;37.528;2022-10-16T03:21:45;11.38;;;5.30;;
35434;SDS011;21556;55.782;37.528;2022-10-16T03:24:12;10.05;;;5.65;;
35434;SDS011;21556;55.782;37.528;2022-10-16T03:26:41;10.63;;;5.50;;
35434;SDS011;21556;55.782;37.528;2022-10-16T03:29:06;12.70;;;5.93;;
35434;SDS011;21556;55.782;37.528;2022-10-16T03:31:33;11.75;;;5.22;;
35434;SDS011;21556;55.782;37.528;2022-10-16T03:33:58;8.80;;;5.47;;
35434;SDS011;21556;55.782;37.528;2022-10-16T03:36:27;8.30;;;5.18;;
35434;SDS011;21556;55.782;37.528;2022-10-16T03:38:53;8.77;;;5.30;;
35434;SDS011;21556;55.782;37.528;2022-10-16T03:41:19;7.78;;;5.18;;
35434;SDS011;21556;55.782;37.528;2022-10-16T03:43:44;12.93;;;5.57;;
35434;SDS011;21556;55.782;37.528;2022-10-16T03:46:10;9.52;;;5.53;;
35434;SDS011;21556;55.782;37.528;2022-10-16T03:48:38;8.38;;;5.78;;
35434;SDS011;21556;55.782;37.528;2022-10-16T03:51:05;11.07;;;5.63;;
35434;SDS011;21556;55.782;37.528;2022-10-16T03:53:32;10.95;;;5.28;;
35434;SDS011;21556;55.782;37.528;2022-10-16T03:55:57;7.68;;;4.75;;
35434;SDS011;21556;55.782;37.528;2022-10-16T03:58:23;8.65;;;4.72;;
35434;SDS011;21556;55.782;37.528;2022-10-16T04:00:49;11.48;;;5.53;;
35434;SDS011;21556;55.782;37.528;2022-10-16T04:03:15;8.45;;;5.22;;
35434;SDS011;21556;55.782;37.528;2022-10-16T04:05:41;9.13;;;5.25;;
35434;SDS011;21556;55.782;37.528;2022-10-16T04:08:07;7.05;;;4.25;;
35434;SDS011;21556;55.782;37.528;2022-10-16T04:10:36;7.53;;;4.68;;
35434;SDS011;21556;55.782;37.528;2022-10-16T04:13:02;7.32;;;3.95;;
35434;SDS011;21556;55.782;37.528;2022-10-16T04:15:28;9.45;;;4.55;;
35434;SDS011;21556;55.782;37.528;2022-10-16T04:17:54;8.13;;;3.95;;
35434;SDS011;21556;55.782;37.528;2022-10-16T04:20:19;8.05;;;4.10;;
35434;SDS011;21556;55.782;37.528;2022-10-16T04:22:45;11.15;;;3.88;;
35434;SDS011;21556;55.782;37.528;2022-10-16T04:25:12;11.52;;;3.78;;
35434;SDS011;21556;55.782;37.528;2022-10-16T04:27:38;9.23;;;4.18;;
35434;SDS011;21556;55.782;37.528;2022-10-16T04:30:06;6.53;;;4.00;;
35434;SDS011;21556;55.782;37.528;2022-10-16T04:32:32;11.65;;;4.50;;
35434;SDS011;21556;55.782;37.528;2022-10-16T04:34:57;16.10;;;4.25;;
35434;SDS011;21556;55.782;37.528;2022-10-16T04:37:24;6.13;;;3.83;;
35434;SDS011;21556;55.782;37.528;2022-10-16T04:39:51;8.90;;;3.97;;
35434;SDS011;21556;55.782;37.528;2022-10-16T04:42:17;9.40;;;4.78;;
35434;SDS011;21556;55.782;37.528;2022-10-16T04:44:46;9.52;;;4.32;;
35434;SDS011;21556;55.782;37.528;2022-10-16T04:47:12;6.30;;;4.32;;
35434;SDS011;21556;55.782;37.528;2022-10-16T04:49:39;7.90;;;4.47;;
35434;SDS011;21556;55.782;37.528;2022-10-16T04:52:05;6.68;;;4.70;;
35434;SDS011;21556;55.782;37.528;2022-10-16T04:54:31;9.68;;;4.55;;
35434;SDS011;21556;55.782;37.528;2022-10-16T04:56:58;8.68;;;4.45;;
35434;SDS011;21556;55.782;37.528;2022-10-16T04:59:24;9.93;;;4.55;;
35434;SDS011;21556;55.782;37.528;2022-10-16T05:01:50;11.57;;;4.78;;
35434;SDS011;21556;55.782;37.528;2022-10-16T05:04:16;7.78;;;4.97;;
35434;SDS011;21556;55.782;37.528;2022-10-16T05:06:42;11.38;;;4.65;;
35434;SDS011;21556;55.782;37.528;2022-10-16T05:09:08;8.90;;;5.03;;
35434;SDS011;21556;55.782;37.528;2022-10-16T05:11:36;9.93;;;4.93;;
35434;SDS011;21556;55.782;37.528;2022-10-16T05:14:02;14.50;;;4.90;;
35434;SDS011;21556;55.782;37.528;2022-10-16T05:16:28;8.50;;;5.03;;
35434;SDS011;21556;55.782;37.528;2022-10-16T05:18:55;11.32;;;4.78;;
35434;SDS011;21556;55.782;37.528;2022-10-16T05:21:30;13.95;;;4.80;;
35434;SDS011;21556;55.782;37.528;2022-10-16T05:23:58;9.80;;;5.30;;
35434;SDS011;21556;55.782;37.528;2022-10-16T05:26:24;10.55;;;5.03;;
35434;SDS011;21556;55.782;37.528;2022-10-16T05:28:50;10.50;;;5.18;;
35434;SDS011;21556;55.782;37.528;2022-10-16T05:31:17;11.48;;;4.88;;
35434;SDS011;21556;55.782;37.528;2022-10-16T05:33:43;8.43;;;3.97;;
35434;SDS011;21556;55.782;37.528;2022-10-16T05:36:10;11.05;;;4.72;;
35434;SDS011;21556;55.782;37.528;2022-10-16T05:38:36;8.77;;;4.30;;
35434;SDS011;21556;55.782;37.528;2022-10-16T05:41:03;7.70;;;4.80;;
35434;SDS011;21556;55.782;37.528;2022-10-16T05:43:30;11.15;;;4.28;;
35434;SDS011;21556;55.782;37.528;2022-10-16T05:45:58;8.02;;;4.22;;
35434;SDS011;21556;55.782;37.528;2022-10-16T05:48:27;11.00;;;5.07;;
35434;SDS011;21556;55.782;37.528;2022-10-16T05:50:57;9.63;;;4.70;;
35434;SDS011;21556;55.782;37.528;2022-10-16T05:53:24;7.57;;;4.85;;
35434;SDS011;21556;55.782;37.528;2022-10-16T05:55:54;10.20;;;5.20;;
35434;SDS011;21556;55.782;37.528;2022-10-16T05:58:22;10.93;;;5.30;;
35434;SDS011;21556;55.782;37.528;2022-10-16T06:00:54;14.82;;;4.88;;
35434;SDS011;21556;55.782;37.528;2022-10-16T06:03:20;10.60;;;5.00;;
35434;SDS011;21556;55.782;37.528;2022-10-16T06:05:46;9.35;;;4.90;;
35434;SDS011;21556;55.782;37.528;2022-10-16T06:08:12;10.95;;;4.90;;
35434;SDS011;21556;55.782;37.528;2022-10-16T06:10:40;11.20;;;5.70;;
35434;SDS011;21556;55.782;37.528;2022-10-16T06:13:06;14.98;;;4.68;;
35434;SDS011;21556;55.782;37.528;2022-10-16T06:15:34;9.02;;;4.13;;
35434;SDS011;21556;55.782;37.528;2022-10-16T06:18:00;12.27;;;4.85;;
35434;SDS011;21556;55.782;37.528;2022-10-16T06:20:26;7.82;;;5.10;;
35434;SDS011;21556;55.782;37.528;2022-10-16T06:22:51;11.50;;;4.53;;
35434;SDS011;21556;55.782;37.528;2022-10-16T06:25:19;9.45;;;4.88;;
35434;SDS011;21556;55.782;37.528;2022-10-16T06:27:46;9.43;;;4.80;;
35434;SDS011;21556;55.782;37.528;2022-10-16T06:30:13;14.98;;;5.75;;
35434;SDS011;21556;55.782;37.528;2022-10-16T06:32:40;11.52;;;5.18;;
35434;SDS011;21556;55.782;37.528;2022-10-16T06:35:06;12.40;;;5.68;;
35434;SDS011;21556;55.782;37.528;2022-10-16T06:37:32;12.07;;;5.40;;
35434;SDS011;21556;55.782;37.528;2022-10-16T06:39:57;11.63;;;5.70;;
35434;SDS011;21556;55.782;37.528;2022-10-16T06:42:24;11.52;;;5.28;;
35434;SDS011;21556;55.782;37.528;2022-10-16T06:44:50;10.55;;;5.57;;
35434;SDS011;21556;55.782;37.528;2022-10-16T06:47:15;13.45;;;5.55;;
35434;SDS011;21556;55.782;37.528;2022-10-16T06:49:41;9.35;;;4.88;;
35434;SDS011;21556;55.782;37.528;2022-10-16T06:52:07;8.18;;;4.65;;
35434;SDS011;21556;55.782;37.528;2022-10-16T06:54:33;8.35;;;4.90;;
35434;SDS011;21556;55.782;37.528;2022-10-16T06:56:59;9.07;;;4.95;;
35434;SDS011;21556;55.782;37.528;2022-10-16T06:59:25;13.15;;;5.35;;
35434;SDS011;21556;55.782;37.528;2022-10-16T07:01:51;9.02;;;5.40;;
35434;SDS011;21556;55.782;37.528;2022-10-16T07:04:17;12.27;;;6.10;;
35434;SDS011;21556;55.782;37.528;2022-10-16T07:06:43;10.35;;;6.07;;
35434;SDS011;21556;55.782;37.528;2022-10-16T07:09:10;13.98;;;6.25;;
35434;SDS011;21556;55.782;37.528;2022-10-16T07:11:37;12.70;;;5.97;;
35434;SDS011;21556;55.782;37.528;2022-10-16T07:14:04;10.43;;;5.82;;
35434;SDS011;21556;55.782;37.528;2022-10-16T07:16:34;12.70;;;6.15;;
35434;SDS011;21556;55.782;37.528;2022-10-16T07:19:00;13.30;;;5.53;;
35434;SDS011;21556;55.782;37.528;2022-10-16T07:21:28;9.68;;;5.65;;
35434;SDS011;21556;55.782;37.528;2022-10-16T07:24:00;11.95;;;5.45;;
35434;SDS011;21556;55.782;37.528;2022-10-16T07:26:27;11.85;;;6.22;;
35434;SDS011;21556;55.782;37.528;2022-10-16T07:28:55;10.88;;;5.22;;
35434;SDS011;21556;55.782;37.528;2022-10-16T07:31:23;14.48;;;6.18;;
35434;SDS011;21556;55.782;37.528;2022-10-16T07:33:49;16.92;;;5.57;;
35434;SDS011;21556;55.782;37.528;2022-10-16T07:36:17;15.30;;;5.55;;
35434;SDS011;21556;55.782;37.528;2022-10-16T07:38:44;11.57;;;6.03;;
35434;SDS011;21556;55.782;37.528;2022-10-16T07:41:17;14.32;;;5.72;;
35434;SDS011;21556;55.782;37.528;2022-10-16T07:43:45;10.35;;;4.90;;
35434;SDS011;21556;55.782;37.528;2022-10-16T07:46:16;14.23;;;6.47;;
35434;SDS011;21556;55.782;37.528;2022-10-16T07:51:14;9.60;;;4.97;;
35434;SDS011;21556;55.782;37.528;2022-10-16T07:53:42;9.57;;;5.35;;
35434;SDS011;21556;55.782;37.528;2022-10-16T07:56:08;10.82;;;5.07;;
35434;SDS011;21556;55.782;37.528;2022-10-16T07:58:34;9.57;;;5.38;;
35434;SDS011;21556;55.782;37.528;2022-10-16T08:03:50;11.18;;;5.18;;
35434;SDS011;21556;55.782;37.528;2022-10-16T08:06:17;10.43;;;4.93;;
35434;SDS011;21556;55.782;37.528;2022-10-16T08:08:48;10.20;;;5.45;;
35434;SDS011;21556;55.782;37.528;2022-10-16T08:11:14;18.08;;;5.68;;
35434;SDS011;21556;55.782;37.528;2022-10-16T08:13:40;14.00;;;4.65;;
35434;SDS011;21556;55.782;37.528;2022-10-16T08:16:07;10.27;;;4.50;;
35434;SDS011;21556;55.782;37.528;2022-10-16T08:18:34;15.07;;;5.68;;
35434;SDS011;21556;55.782;37.528;2022-10-16T08:21:02;10.57;;;4.55;;
35434;SDS011;21556;55.782;37.528;2022-10-16T08:26:21;11.57;;;4.78;;
35434;SDS011;21556;55.782;37.528;2022-10-16T08:28:49;10.32;;;4.53;;
35434;SDS011;21556;55.782;37.528;2022-10-16T08:31:16;9.18;;;3.95;;
35434;SDS011;21556;55.782;37.528;2022-10-16T08:33:42;8.18;;;4.55;;
35434;SDS011;21556;55.782;37.528;2022-10-16T08:36:12;9.98;;;4.93;;
35434;SDS011;21556;55.782;37.528;2022-10-16T08:38:41;10.57;;;4.78;;
35434;SDS011;21556;55.782;37.528;2022-10-16T08:41:17;9.07;;;4.07;;
35434;SDS011;21556;55.782;37.528;2022-10-16T08:49:58;8.85;;;4.10;;
35434;SDS011;21556;55.782;37.528;2022-10-16T08:52:31;6.97;;;4.30;;
35434;SDS011;21556;55.782;37.528;2022-10-16T08:55:02;10.27;;;4.47;;
35434;SDS011;21556;55.782;37.528;2022-10-16T08:57:32;8.05;;;4.07;;
35434;SDS011;21556;55.782;37.528;2022-10-16T09:00:05;9.60;;;4.32;;
35434;SDS011;21556;55.782;37.528;2022-10-16T09:11:17;8.27;;;3.90;;
35434;SDS011;21556;55.782;37.528;2022-10-16T09:17:15;7.53;;;3.58;;
35434;SDS011;21556;55.782;37.528;2022-10-16T09:22:37;8.68;;;3.25;;
35434;SDS011;21556;55.782;37.528;2022-10-16T09:25:13;5.00;;;3.20;;
35434;SDS011;21556;55.782;37.528;2022-10-16T09:27:47;7.78;;;3.65;;
35434;SDS011;21556;55.782;37.528;2022-10-16T09:30:20;8.10;;;3.67;;
35434;SDS011;21556;55.782;37.528;2022-10-16T09:32:48;6.10;;;3.25;;
35434;SDS011;21556;55.782;37.528;2022-10-16T09:35:20;11.00;;;3.35;;
35434;SDS011;21556;55.782;37.528;2022-10-16T09:37:53;7.03;;;3.30;;
35434;SDS011;21556;55.782;37.528;2022-10-16T09:40:24;9.75;;;3.40;;
35434;SDS011;21556;55.782;37.528;2022-10-16T09:42:51;7.68;;;2.92;;
35434;SDS011;21556;55.782;37.528;2022-10-16T09:45:52;6.32;;;2.42;;
35434;SDS011;21556;55.782;37.528;2022-10-16T09:48:19;7.30;;;2.53;;
35434;SDS011;21556;55.782;37.528;2022-10-16T09:50:55;10.48;;;2.75;;
35434;SDS011;21556;55.782;37.528;2022-10-16T09:53:23;5.43;;;2.30;;
35434;SDS011;21556;55.782;37.528;2022-10-16T09:55:50;4.43;;;2.30;;
35434;SDS011;21556;55.782;37.528;2022-10-16T09:58:23;7.00;;;2.35;;
35434;SDS011;21556;55.782;37.528;2022-10-16T10:00:53;6.57;;;2.80;;
35434;SDS011;21556;55.782;37.528;2022-10-16T10:03:39;7.70;;;2.30;;
35434;SDS011;21556;55.782;37.528;2022-10-16T10:06:15;4.68;;;2.80;;
35434;SDS011;21556;55.782;37.528;2022-10-16T10:11:40;8.05;;;2.75;;
35434;SDS011;21556;55.782;37.528;2022-10-16T10:42:02;7.47;;;3.20;;
35434;SDS011;21556;55.782;37.528;2022-10-16T10:47:31;8.50;;;2.63;;
35434;SDS011;21556;55.782;37.528;2022-10-16T10:55:52;8.63;;;2.92;;
35434;SDS011;21556;55.782;37.528;2022-10-16T11:06:52;5.43;;;2.42;;
35434;SDS011;21556;55.782;37.528;2022-10-16T11:09:26;5.68;;;2.65;;
35434;SDS011;21556;55.782;37.528;2022-10-16T11:17:51;6.20;;;3.20;;
35434;SDS011;21556;55.782;37.528;2022-10-16T11:22:51;10.00;;;2.88;;
35434;SDS011;21556;55.782;37.528;2022-10-16T11:25:26;5.75;;;3.25;;
35434;SDS011;21556;55.782;37.528;2022-10-16T11:30:53;9.82;;;3.03;;
35434;SDS011;21556;55.782;37.528;2022-10-16T11:33:41;7.25;;;3.08;;
35434;SDS011;21556;55.782;37.528;2022-10-16T11:36:28;7.63;;;2.70;;
35434;SDS011;21556;55.782;37.528;2022-10-16T11:39:31;8.32;;;3.03;;
35434;SDS011;21556;55.782;37.528;2022-10-16T11:42:41;6.93;;;2.90;;
35434;SDS011;21556;55.782;37.528;2022-10-16T11:45:36;5.47;;;2.83;;
35434;SDS011;21556;55.782;37.528;2022-10-16T11:48:20;10.10;;;3.15;;
35434;SDS011;21556;55.782;37.528;2022-10-16T11:53:59;7.95;;;3.00;;
35434;SDS011;21556;55.782;37.528;2022-10-16T11:56:35;9.82;;;2.97;;
35434;SDS011;21556;55.782;37.528;2022-10-16T11:59:07;13.25;;;4.05;;
35434;SDS011;21556;55.782;37.528;2022-10-16T12:04:55;8.77;;;3.38;;
35434;SDS011;21556;55.782;37.528;2022-10-16T12:07:39;6.43;;;3.42;;
35434;SDS011;21556;55.782;37.528;2022-10-16T12:10:23;5.18;;;2.97;;
35434;SDS011;21556;55.782;37.528;2022-10-16T12:12:55;4.57;;;2.67;;
35434;SDS011;21556;55.782;37.528;2022-10-16T12:15:26;9.15;;;3.28;;
35434;SDS011;21556;55.782;37.528;2022-10-16T12:17:59;6.55;;;3.20;;
35434;SDS011;21556;55.782;37.528;2022-10-16T12:20:32;7.85;;;3.47;;
35434;SDS011;21556;55.782;37.528;2022-10-16T12:23:05;7.03;;;3.20;;
35434;SDS011;21556;55.782;37.528;2022-10-16T12:25:36;8.75;;;3.40;;
35434;SDS011;21556;55.782;37.528;2022-10-16T12:30:52;8.02;;;3.92;;
35434;SDS011;21556;55.782;37.528;2022-10-16T12:33:28;12.02;;;3.72;;
35434;SDS011;21556;55.782;37.528;2022-10-16T12:35:56;7.40;;;2.97;;
35434;SDS011;21556;55.782;37.528;2022-10-16T12:38:47;8.70;;;3.05;;
35434;SDS011;21556;55.782;37.528;2022-10-16T12:41:41;6.43;;;3.13;;
35434;SDS011;21556;55.782;37.528;2022-10-16T12:44:24;5.53;;;2.97;;
35434;SDS011;21556;55.782;37.528;2022-10-16T12:46:51;7.95;;;3.58;;
35434;SDS011;21556;55.782;37.528;2022-10-16T12:49:21;6.20;;;3.30;;
35434;SDS011;21556;55.782;37.528;2022-10-16T12:51:55;6.90;;;3.90;;
35434;SDS011;21556;55.782;37.528;2022-10-16T13:17:23;8.95;;;3.20;;
35434;SDS011;21556;55.782;37.528;2022-10-16T13:20:15;6.38;;;2.55;;
35434;SDS011;21556;55.782;37.528;2022-10-16T13:23:09;7.63;;;3.17;;
35434;SDS011;21556;55.782;37.528;2022-10-16T13:25:56;7.90;;;3.28;;
35434;SDS011;21556;55.782;37.528;2022-10-16T13:28:32;6.40;;;2.88;;
35434;SDS011;21556;55.782;37.528;2022-10-16T13:31:00;7.93;;;3.13;;
35434;SDS011;21556;55.782;37.528;2022-10-16T13:33:35;18.85;;;4.10;;
35434;SDS011;21556;55.782;37.528;2022-10-16T13:36:35;6.15;;;3.20;;
35434;SDS011;21556;55.782;37.528;2022-10-16T13:42:30;7.80;;;3.60;;
35434;SDS011;21556;55.782;37.528;2022-10-16T13:48:09;9.60;;;3.88;;
35434;SDS011;21556;55.782;37.528;2022-10-16T13:50:37;4.38;;;2.78;;
35434;SDS011;21556;55.782;37.528;2022-10-16T13:53:05;7.90;;;3.17;;
35434;SDS011;21556;55.782;37.528;2022-10-16T13:55:31;7.25;;;3.25;;
35434;SDS011;21556;55.782;37.528;2022-10-16T13:58:05;5.57;;;3.40;;
35434;SDS011;21556;55.782;37.528;2022-10-16T14:00:38;7.65;;;2.95;;
35434;SDS011;21556;55.782;37.528;2022-10-16T14:03:06;7.75;;;2.85;;
35434;SDS011;21556;55.782;37.528;2022-10-16T14:05:45;10.38;;;4.10;;
35434;SDS011;21556;55.782;37.528;2022-10-16T14:08:15;8.77;;;3.30;;
35434;SDS011;21556;55.782;37.528;2022-10-16T14:10:55;6.40;;;3.58;;
35434;SDS011;21556;55.782;37.528;2022-10-16T14:13:28;13.85;;;3.47;;
35434;SDS011;21556;55.782;37.528;2022-10-16T14:16:04;10.45;;;3.50;;
35434;SDS011;21556;55.782;37.528;2022-10-16T14:18:33;11.93;;;4.15;;
35434;SDS011;21556;55.782;37.528;2022-10-16T14:21:12;10.63;;;3.97;;
35434;SDS011;21556;55.782;37.528;2022-10-16T14:23:44;8.32;;;3.17;;
35434;SDS011;21556;55.782;37.528;2022-10-16T14:26:12;9.25;;;4.05;;
35434;SDS011;21556;55.782;37.528;2022-10-16T14:28:40;8.60;;;3.80;;
35434;SDS011;21556;55.782;37.528;2022-10-16T14:31:25;11.57;;;4.05;;
35434;SDS011;21556;55.782;37.528;2022-10-16T14:33:58;8.88;;;4.22;;
35434;SDS011;21556;55.782;37.528;2022-10-16T14:36:25;7.25;;;3.83;;
35434;SDS011;21556;55.782;37.528;2022-10-16T14:41:40;7.00;;;3.67;;
35434;SDS011;21556;55.782;37.528;2022-10-16T14:44:12;7.18;;;3.53;;
35434;SDS011;21556;55.782;37.528;2022-10-16T14:46:39;5.90;;;3.67;;
35434;SDS011;21556;55.782;37.528;2022-10-16T14:51:37;8.80;;;3.72;;
35434;SDS011;21556;55.782;37.528;2022-10-16T14:54:04;7.93;;;4.22;;
35434;SDS011;21556;55.782;37.528;2022-10-16T14:56:31;8.38;;;4.10;;
35434;SDS011;21556;55.782;37.528;2022-10-16T14:59:28;9.45;;;3.95;;
35434;SDS011;21556;55.782;37.528;2022-10-16T15:01:57;5.55;;;3.50;;
35434;SDS011;21556;55.782;37.528;2022-10-16T15:04:23;11.90;;;4.50;;
35434;SDS011;21556;55.782;37.528;2022-10-16T15:06:49;7.30;;;4.05;;
35434;SDS011;21556;55.782;37.528;2022-10-16T15:09:18;9.00;;;4.72;;
35434;SDS011;21556;55.782;37.528;2022-10-16T15:11:44;13.75;;;4.05;;
35434;SDS011;21556;55.782;37.528;2022-10-16T15:14:13;9.23;;;4.13;;
35434;SDS011;21556;55.782;37.528;2022-10-16T15:16:39;7.18;;;4.35;;
35434;SDS011;21556;55.782;37.528;2022-10-16T15:19:06;8.38;;;3.80;;
35434;SDS011;21556;55.782;37.528;2022-10-16T15:21:32;8.27;;;4.63;;
35434;SDS011;21556;55.782;37.528;2022-10-16T15:23:59;8.75;;;4.45;;
35434;SDS011;21556;55.782;37.528;2022-10-16T15:26:30;10.50;;;4.15;;
35434;SDS011;21556;55.782;37.528;2022-10-16T15:28:58;7.40;;;4.35;;
35434;SDS011;21556;55.782;37.528;2022-10-16T15:31:25;9.13;;;5.10;;
35434;SDS011;21556;55.782;37.528;2022-10-16T15:33:53;7.97;;;3.60;;
35434;SDS011;21556;55.782;37.528;2022-10-16T15:36:28;7.80;;;3.83;;
35434;SDS011;21556;55.782;37.528;2022-10-16T15:38:55;8.00;;;3.80;;
35434;SDS011;21556;55.782;37.528;2022-10-16T15:41:24;7.18;;;3.30;;
35434;SDS011;21556;55.782;37.528;2022-10-16T15:43:54;10.07;;;4.30;;
35434;SDS011;21556;55.782;37.528;2022-10-16T15:46:54;7.72;;;3.88;;
35434;SDS011;21556;55.782;37.528;2022-10-16T15:49:43;10.15;;;4.35;;
35434;SDS011;21556;55.782;37.528;2022-10-16T15:52:11;10.13;;;4.43;;
35434;SDS011;21556;55.782;37.528;2022-10-16T15:55:10;6.15;;;3.80;;
35434;SDS011;21556;55.782;37.528;2022-10-16T16:00:34;12.75;;;4.53;;
35434;SDS011;21556;55.782;37.528;2022-10-16T16:03:01;9.82;;;4.65;;
35434;SDS011;21556;55.782;37.528;2022-10-16T16:05:30;7.40;;;4.10;;
35434;SDS011;21556;55.782;37.528;2022-10-16T16:07:56;8.88;;;3.83;;
35434;SDS011;21556;55.782;37.528;2022-10-16T16:10:32;10.77;;;4.38;;
35434;SDS011;21556;55.782;37.528;2022-10-16T16:12:58;9.25;;;4.32;;
35434;SDS011;21556;55.782;37.528;2022-10-16T16:15:24;9.38;;;5.57;;
35434;SDS011;21556;55.782;37.528;2022-10-16T16:17:50;8.38;;;4.32;;
35434;SDS011;21556;55.782;37.528;2022-10-16T16:20:16;8.05;;;3.78;;
35434;SDS011;21556;55.782;37.528;2022-10-16T16:22:43;8.68;;;4.07;;
35434;SDS011;21556;55.782;37.528;2022-10-16T16:25:09;9.32;;;4.28;;
35434;SDS011;21556;55.782;37.528;2022-10-16T16:27:39;8.52;;;4.47;;
35434;SDS011;21556;55.782;37.528;2022-10-16T16:30:05;10.20;;;4.70;;
35434;SDS011;21556;55.782;37.528;2022-10-16T16:32:33;9.55;;;4.70;;
35434;SDS011;21556;55.782;37.528;2022-10-16T16:35:00;8.57;;;5.28;;
35434;SDS011;21556;55.782;37.528;2022-10-16T16:37:29;12.43;;;4.53;;
35434;SDS011;21556;55.782;37.528;2022-10-16T16:39:56;10.98;;;4.10;;
35434;SDS011;21556;55.782;37.528;2022-10-16T16:42:26;9.15;;;4.03;;
35434;SDS011;21556;55.782;37.528;2022-10-16T16:44:54;6.47;;;3.63;;
35434;SDS011;21556;55.782;37.528;2022-10-16T16:47:20;8.40;;;3.78;;
35434;SDS011;21556;55.782;37.528;2022-10-16T16:52:16;10.07;;;4.33;;
35434;SDS011;21556;55.782;37.528;2022-10-16T16:54:47;8.63;;;3.70;;
35434;SDS011;21556;55.782;37.528;2022-10-16T16:57:19;9.63;;;3.88;;
35434;SDS011;21556;55.782;37.528;2022-10-16T16:59:47;9.68;;;5.30;;
35434;SDS011;21556;55.782;37.528;2022-10-16T17:02:18;8.80;;;4.88;;
35434;SDS011;21556;55.782;37.528;2022-10-16T17:04:45;9.48;;;4.35;;
35434;SDS011;21556;55.782;37.528;2022-10-16T17:07:11;11.52;;;4.88;;
35434;SDS011;21556;55.782;37.528;2022-10-16T17:09:38;12.05;;;5.47;;
35434;SDS011;21556;55.782;37.528;2022-10-16T17:12:03;11.18;;;5.22;;
35434;SDS011;21556;55.782;37.528;2022-10-16T17:14:31;11.90;;;4.90;;
35434;SDS011;21556;55.782;37.528;2022-10-16T17:16:57;14.98;;;4.72;;
35434;SDS011;21556;55.782;37.528;2022-10-16T17:19:23;9.30;;;4.13;;
35434;SDS011;21556;55.782;37.528;2022-10-16T17:21:51;8.45;;;4.38;;
35434;SDS011;21556;55.782;37.528;2022-10-16T17:24:17;10.02;;;4.07;;
35434;SDS011;21556;55.782;37.528;2022-10-16T17:26:45;8.48;;;4.22;;
35434;SDS011;21556;55.782;37.528;2022-10-16T17:29:15;6.38;;;3.97;;
35434;SDS011;21556;55.782;37.528;2022-10-16T17:31:42;6.43;;;3.67;;
35434;SDS011;21556;55.782;37.528;2022-10-16T17:34:09;6.20;;;3.83;;
35434;SDS011;21556;55.782;37.528;2022-10-16T17:36:38;11.40;;;4.20;;
35434;SDS011;21556;55.782;37.528;2022-10-16T17:39:10;8.57;;;3.97;;
35434;SDS011;21556;55.782;37.528;2022-10-16T17:41:37;6.75;;;3.13;;